Largo — PFNC — position and weather

sailwx.info

Track history (hours):
 
Tides and Currents Weather Stations Pressure Air Temp Water Temp Dewpoint Dewpoint Depression Visibility Wind Speed Wind Dir Waves Ship Positions

Largo

Last reported at 2017-Nov-24 00:42 UTC. Time now 2017-Nov-25 11:44 UTC.
Position N 38°38' E 000°33'.

Length 91 m; draft 4.9 m.

Type: Cargo ship. MMSI: 245645000.

Date/timePositionNaut miles runAvg speedWind from/ knotsBaromVisibWave heightAir tempDewpointWater temp
2017-Nov-24 00:42N 38°38' E 000°33'2 7.6
2017-Nov-24 00:30N 38°37' E 000°33'4 7.6
2017-Nov-24 00:00N 38°33' E 000°34'11 7.5
2017-Nov-23 22:32N 38°22' E 000°38'1 7.6
2017-Nov-23 22:27N 38°22' E 000°38'8 7.6
2017-Nov-23 21:21N 38°14' E 000°42'5 7.5
2017-Nov-23 20:40N 38°09' E 000°44'17 7.6
2017-Nov-23 18:26N 37°53' E 000°50'8 7.6
2017-Nov-23 17:22N 37°45' E 000°52'3 7.8
2017-Nov-23 17:00N 37°42' E 000°53'19 7.7
2017-Nov-23 14:34N 37°24' E 000°60'3 7.6
2017-Nov-23 14:07N 37°21' E 001°01'1 7.3
2017-Nov-23 14:00N 37°20' E 001°01'4 7.3
2017-Nov-23 13:30N 37°17' E 001°02'4 7.3
2017-Nov-23 13:00N 37°13' E 001°04'25 7.7
2017-Nov-23 09:45N 36°49' E 001°12'19 1.6
2017-Nov-22 22:26N 36°32' E 001°19'0 0.0
2017-Nov-22 21:32N 36°32' E 001°19'  
2017-Nov-16 14:16N 37°45' W 000°21'2 9.5
2017-Nov-16 14:01N 37°43' W 000°23'5 9.6
2017-Nov-16 13:30N 37°39' W 000°26'5 9.6
2017-Nov-16 13:00N 37°35' W 000°30'5 9.6
2017-Nov-16 12:31N 37°31' W 000°33'6 9.5
2017-Nov-16 11:50N 37°26' W 000°38'4 9.6
2017-Nov-16 11:27N 37°23' W 000°41'4 9.6
2017-Nov-16 11:00N 37°20' W 000°45'5 9.6
2017-Nov-16 10:31N 37°17' W 000°49'  
Track history (hours):
 
Tides and Currents Weather Stations Pressure Air Temp Water Temp Dewpoint Dewpoint Depression Visibility Wind Speed Wind Dir Waves Ship Positions

Largo

Last reported at 2017-Nov-24 00:42 UTC. Time now 2017-Nov-25 11:44 UTC.
Position N 38°38' E 000°33'.

Length 91 m; draft 4.9 m.

Type: Cargo ship. MMSI: 245645000.

Date/timePositionNaut miles runAvg speedWind from/ knotsBaromVisibWave heightAir tempDewpointWater temp
2017-Nov-24 00:42N 38°38' E 000°33'2 7.6
2017-Nov-24 00:30N 38°37' E 000°33'4 7.6
2017-Nov-24 00:00N 38°33' E 000°34'11 7.5
2017-Nov-23 22:32N 38°22' E 000°38'1 7.6
2017-Nov-23 22:27N 38°22' E 000°38'8 7.6
2017-Nov-23 21:21N 38°14' E 000°42'5 7.5
2017-Nov-23 20:40N 38°09' E 000°44'17 7.6
2017-Nov-23 18:26N 37°53' E 000°50'8 7.6
2017-Nov-23 17:22N 37°45' E 000°52'3 7.8
2017-Nov-23 17:00N 37°42' E 000°53'19 7.7
2017-Nov-23 14:34N 37°24' E 000°60'3 7.6
2017-Nov-23 14:07N 37°21' E 001°01'1 7.3
2017-Nov-23 14:00N 37°20' E 001°01'4 7.3
2017-Nov-23 13:30N 37°17' E 001°02'4 7.3
2017-Nov-23 13:00N 37°13' E 001°04'25 7.7
2017-Nov-23 09:45N 36°49' E 001°12'19 1.6
2017-Nov-22 22:26N 36°32' E 001°19'0 0.0
2017-Nov-22 21:32N 36°32' E 001°19'  
2017-Nov-16 14:16N 37°45' W 000°21'2 9.5
2017-Nov-16 14:01N 37°43' W 000°23'5 9.6
2017-Nov-16 13:30N 37°39' W 000°26'5 9.6
2017-Nov-16 13:00N 37°35' W 000°30'5 9.6
2017-Nov-16 12:31N 37°31' W 000°33'6 9.5
2017-Nov-16 11:50N 37°26' W 000°38'4 9.6
2017-Nov-16 11:27N 37°23' W 000°41'4 9.6
2017-Nov-16 11:00N 37°20' W 000°45'5 9.6
2017-Nov-16 10:31N 37°17' W 000°49'  

Dump ship's entire track history